createdAt,value
2018-08-10T00:00:46.021Z,71.72
2018-08-10T00:03:15.618Z,70.58
2018-08-10T00:05:44.447Z,70.09
2018-08-10T00:08:13.736Z,70.15
2018-08-10T00:10:42.893Z,71.57
2018-08-10T00:13:12.511Z,71.13
2018-08-10T00:15:43.525Z,70.89
2018-08-10T00:18:12.867Z,70.60
2018-08-10T00:20:42.451Z,70.87
2018-08-10T00:23:12.543Z,71.23
2018-08-10T00:25:42.174Z,71.00
2018-08-10T00:28:11.977Z,71.59
2018-08-10T00:30:42.176Z,71.35
2018-08-10T00:33:12.681Z,72.24
2018-08-10T00:35:42.968Z,71.82
2018-08-10T00:38:12.792Z,72.51
2018-08-10T00:40:42.158Z,72.58
2018-08-10T00:43:12.026Z,72.13
2018-08-10T00:45:41.972Z,72.30
2018-08-10T00:48:11.126Z,72.08
2018-08-10T00:50:40.871Z,72.60
2018-08-10T00:53:10.547Z,71.85
2018-08-10T00:55:40.460Z,72.36
2018-08-10T00:58:10.606Z,71.93
2018-08-10T01:00:40.419Z,71.85
2018-08-10T01:03:09.474Z,73.03
2018-08-10T01:05:39.795Z,72.33
2018-08-10T01:08:10.937Z,72.67
2018-08-10T01:10:41.780Z,72.86
2018-08-10T01:13:12.311Z,73.02
2018-08-10T01:15:42.524Z,72.49
2018-08-10T01:18:13.845Z,72.66
2018-08-10T01:20:42.666Z,73.71
2018-08-10T01:23:12.388Z,73.93
2018-08-10T01:25:42.822Z,73.84
2018-08-10T01:28:12.601Z,74.04
2018-08-10T01:30:41.737Z,74.79
2018-08-10T01:33:11.648Z,74.54
2018-08-10T01:35:40.655Z,74.80
2018-08-10T01:38:09.361Z,75.36
2018-08-10T01:40:38.357Z,75.81
2018-08-10T01:43:07.279Z,75.39
2018-08-10T01:45:36.682Z,75.29
2018-08-10T01:48:05.575Z,74.71
2018-08-10T01:50:34.433Z,75.59
2018-08-10T01:53:03.336Z,74.72
2018-08-10T01:55:32.249Z,75.64
2018-08-10T01:58:01.068Z,75.94
2018-08-10T02:00:29.683Z,74.97
2018-08-10T02:02:58.919Z,75.68
2018-08-10T02:05:27.489Z,74.42
2018-08-10T02:07:56.095Z,75.02
2018-08-10T02:10:25.728Z,75.01
2018-08-10T02:12:56.699Z,74.58
2018-08-10T02:15:25.291Z,74.21
2018-08-10T02:17:54.080Z,74.17
2018-08-10T02:20:24.281Z,73.28
2018-08-10T02:22:53.071Z,74.13
2018-08-10T02:25:22.917Z,73.67
2018-08-10T02:27:52.284Z,74.38
2018-08-10T02:30:22.519Z,74.12
2018-08-10T02:32:51.759Z,74.96
2018-08-10T02:35:21.369Z,74.83
2018-08-10T02:37:50.065Z,74.91
2018-08-10T02:40:20.586Z,76.45
2018-08-10T02:42:49.857Z,75.83
2018-08-10T02:45:18.495Z,76.16
2018-08-10T02:47:47.607Z,76.56
2018-08-10T02:50:16.315Z,76.12
2018-08-10T02:52:45.143Z,76.29
2018-08-10T02:55:14.444Z,75.97
2018-08-10T02:57:43.550Z,77.32
2018-08-10T03:00:15.440Z,79.09
2018-08-10T03:02:44.491Z,77.65
2018-08-10T03:05:13.108Z,78.82
2018-08-10T03:07:42.360Z,78.73
2018-08-10T03:10:12.097Z,78.91
2018-08-10T03:12:40.568Z,78.49
2018-08-10T03:15:12.283Z,78.66
2018-08-10T03:17:40.963Z,79.28
2018-08-10T03:20:09.921Z,78.82
2018-08-10T03:22:38.460Z,78.74
2018-08-10T03:25:08.001Z,78.58
2018-08-10T03:27:36.569Z,79.13
2018-08-10T03:30:06.674Z,78.29
2018-08-10T03:32:35.371Z,78.12
2018-08-10T03:35:04.121Z,78.29
2018-08-10T03:37:32.639Z,79.06
2018-08-10T03:40:01.574Z,79.38
2018-08-10T03:42:32.333Z,79.97
2018-08-10T03:45:01.452Z,79.54
2018-08-10T03:47:29.887Z,78.60
2018-08-10T03:49:58.831Z,79.88
2018-08-10T03:52:27.317Z,79.52
2018-08-10T03:54:56.481Z,78.60
2018-08-10T03:57:25.051Z,80.04
2018-08-10T03:59:54.405Z,80.86
2018-08-10T04:02:22.934Z,81.92
2018-08-10T04:04:51.631Z,82.60
2018-08-10T04:07:20.240Z,82.24
2018-08-10T04:09:50.288Z,82.15
2018-08-10T04:12:18.913Z,82.21
2018-08-10T04:14:47.982Z,82.27
2018-08-10T04:17:22.477Z,81.57
2018-08-10T04:19:52.434Z,82.61
2018-08-10T04:22:21.185Z,81.86
2018-08-10T04:24:50.754Z,81.68
2018-08-10T04:27:20.142Z,82.12
2018-08-10T04:29:49.707Z,83.02
2018-08-10T04:32:18.284Z,81.76
2018-08-10T04:34:46.825Z,81.36
2018-08-10T04:37:15.510Z,81.99
2018-08-10T04:39:44.049Z,82.74
2018-08-10T04:42:12.726Z,81.58
2018-08-10T04:44:41.648Z,80.60
2018-08-10T04:47:10.763Z,80.29
2018-08-10T04:49:39.328Z,80.50
2018-08-10T04:52:07.874Z,79.75
2018-08-10T04:54:36.546Z,78.94
2018-08-10T04:57:05.849Z,79.53
2018-08-10T04:59:34.406Z,79.55
2018-08-10T05:02:02.845Z,79.95
2018-08-10T05:04:31.755Z,79.42
2018-08-10T05:07:00.239Z,81.47
2018-08-10T05:09:28.734Z,80.40
2018-08-10T05:11:57.282Z,80.78
2018-08-10T05:14:25.891Z,81.10
2018-08-10T05:16:54.439Z,81.36
2018-08-10T05:19:22.906Z,80.36
2018-08-10T05:21:51.629Z,78.88
2018-08-10T05:24:20.876Z,76.45
2018-08-10T05:26:49.449Z,73.40
2018-08-10T05:29:18.729Z,75.95
2018-08-10T05:31:48.088Z,75.34
2018-08-10T05:34:17.305Z,75.16
2018-08-10T05:36:45.891Z,73.10
2018-08-10T05:39:14.673Z,72.50
2018-08-10T05:41:43.649Z,71.91
2018-08-10T05:44:12.199Z,70.41
2018-08-10T05:46:40.776Z,70.98
2018-08-10T05:49:09.767Z,68.71
2018-08-10T05:51:38.378Z,68.14
2018-08-10T05:54:07.510Z,68.95
2018-08-10T05:56:36.142Z,67.74
2018-08-10T05:59:04.657Z,65.18
2018-08-10T06:01:34.038Z,62.06
2018-08-10T06:04:02.724Z,62.77
2018-08-10T06:06:31.925Z,58.87
2018-08-10T06:09:02.474Z,58.14
2018-08-10T06:11:31.404Z,58.43
2018-08-10T06:14:00.856Z,59.20
2018-08-10T06:16:30.783Z,59.92
2018-08-10T06:18:59.964Z,57.33
2018-08-10T06:21:29.820Z,53.62
2018-08-10T06:23:59.619Z,54.89
2018-08-10T06:26:29.515Z,55.62
2018-08-10T06:28:59.337Z,56.78
2018-08-10T06:31:28.578Z,60.24
2018-08-10T06:33:58.930Z,57.11
2018-08-10T06:36:28.789Z,55.31
2018-08-10T06:38:58.192Z,53.76
2018-08-10T06:41:27.638Z,54.35
2018-08-10T06:43:57.042Z,56.14
2018-08-10T06:46:26.646Z,57.80
2018-08-10T06:48:56.124Z,58.02
2018-08-10T06:51:25.687Z,56.77
2018-08-10T06:53:54.802Z,57.19
2018-08-10T06:56:25.119Z,57.38
2018-08-10T07:01:40.133Z,55.92
2018-08-10T07:04:09.958Z,54.00
2018-08-10T07:06:39.980Z,54.60
2018-08-10T07:09:11.849Z,52.95
2018-08-10T07:11:40.790Z,53.79
2018-08-10T07:14:10.096Z,52.05
2018-08-10T07:16:38.968Z,54.99
2018-08-10T07:19:08.573Z,52.96
2018-08-10T07:21:38.840Z,48.04
2018-08-10T07:24:08.075Z,50.09
2018-08-10T07:26:37.253Z,52.09
2018-08-10T07:29:06.890Z,53.94
2018-08-10T07:31:35.542Z,50.66
2018-08-10T07:34:05.068Z,50.83
2018-08-10T07:36:33.938Z,52.63
2018-08-10T07:39:03.088Z,53.44
2018-08-10T07:41:31.997Z,55.79
2018-08-10T07:44:03.238Z,55.64
2018-08-10T07:46:34.236Z,54.11
2018-08-10T07:49:04.259Z,55.86
2018-08-10T07:51:33.789Z,56.30
2018-08-10T07:54:02.559Z,55.19
2018-08-10T07:56:32.049Z,51.37
2018-08-10T07:59:01.335Z,50.77
2018-08-10T08:01:31.988Z,50.37
2018-08-10T08:04:01.607Z,47.35
2018-08-10T08:06:31.074Z,45.46
2018-08-10T08:09:00.072Z,47.92
2018-08-10T08:11:30.081Z,52.29
2018-08-10T08:13:58.859Z,52.77
2018-08-10T08:16:28.114Z,54.43
2018-08-10T08:18:57.563Z,52.50
2018-08-10T08:21:26.960Z,52.03
2018-08-10T08:23:55.873Z,54.08
2018-08-10T08:26:24.461Z,53.52
2018-08-10T08:28:52.992Z,52.09
2018-08-10T08:31:21.647Z,51.18
2018-08-10T08:34:02.308Z,51.25
2018-08-10T08:36:30.979Z,45.38
2018-08-10T08:39:26.062Z,43.97
2018-08-10T08:41:54.539Z,42.92
2018-08-10T08:44:35.724Z,42.66
2018-08-10T08:47:05.492Z,43.13
2018-08-10T08:49:34.847Z,41.62
2018-08-10T08:52:03.548Z,42.11
2018-08-10T08:55:14.725Z,47.75
2018-08-10T08:57:43.251Z,51.46
2018-08-10T09:00:14.760Z,49.59
2018-08-10T09:02:44.316Z,47.68
2018-08-10T09:05:12.779Z,45.48
2018-08-10T09:07:41.942Z,42.66
2018-08-10T09:10:12.508Z,47.36
2018-08-10T09:12:41.882Z,47.04
2018-08-10T09:15:13.435Z,44.73
2018-08-10T09:17:42.791Z,43.27
2018-08-10T09:20:12.222Z,42.33
2018-08-10T09:22:40.760Z,43.85
2018-08-10T09:25:12.897Z,40.90
2018-08-10T09:27:41.467Z,42.40
2018-08-10T09:30:12.231Z,43.75
2018-08-10T09:32:42.257Z,43.32
2018-08-10T09:35:12.499Z,47.06
2018-08-10T09:38:45.189Z,48.51
2018-08-10T09:41:13.670Z,50.07
2018-08-10T09:43:42.352Z,47.50
2018-08-10T09:46:11.600Z,46.62
2018-08-10T09:48:40.753Z,48.83
2018-08-10T09:51:11.313Z,48.54
2018-08-10T09:53:40.032Z,51.76
2018-08-10T09:56:09.435Z,52.29
2018-08-10T09:58:38.100Z,53.73
2018-08-10T10:01:10.857Z,54.25
2018-08-10T10:03:39.614Z,55.08
2018-08-10T10:06:08.366Z,54.23
2018-08-10T10:08:37.179Z,54.23
2018-08-10T10:11:06.392Z,51.67
2018-08-10T10:13:35.005Z,49.11
2018-08-10T10:16:03.502Z,46.18
2018-08-10T10:18:32.019Z,43.11
2018-08-10T10:21:01.682Z,43.52
2018-08-10T10:23:30.266Z,39.67
2018-08-10T10:25:59.814Z,40.79
2018-08-10T10:28:29.410Z,38.67
2018-08-10T10:30:58.265Z,39.29
2018-08-10T10:33:26.735Z,36.58
2018-08-10T10:35:56.127Z,34.53
2018-08-10T10:38:24.667Z,33.32
2018-08-10T10:40:54.145Z,34.15
2018-08-10T10:43:22.650Z,32.90
2018-08-10T10:45:51.442Z,38.78
2018-08-10T10:48:20.314Z,42.05
2018-08-10T10:50:50.033Z,43.69
2018-08-10T10:53:19.255Z,42.32
2018-08-10T10:55:50.145Z,41.72
2018-08-10T10:58:18.732Z,38.85
2018-08-10T11:00:48.357Z,39.43
2018-08-10T11:03:17.513Z,40.31
2018-08-10T11:05:46.461Z,43.13
2018-08-10T11:08:16.010Z,44.45
2018-08-10T11:10:46.982Z,45.54
2018-08-10T11:13:15.721Z,44.68
2018-08-10T11:15:44.298Z,46.52
2018-08-10T11:18:12.985Z,47.50
2018-08-10T11:20:41.883Z,43.07
2018-08-10T11:23:10.539Z,43.64
2018-08-10T11:25:39.221Z,38.78
2018-08-10T11:28:07.878Z,38.37
2018-08-10T11:30:38.045Z,38.14
2018-08-10T11:33:06.898Z,36.66
2018-08-10T11:35:36.565Z,38.23
2018-08-10T11:38:05.678Z,37.40
2018-08-10T11:40:34.615Z,35.56
2018-08-10T11:43:04.292Z,37.54
2018-08-10T11:45:33.237Z,37.98
2018-08-10T11:48:02.115Z,37.92
2018-08-10T11:50:31.433Z,38.61
2018-08-10T11:53:01.559Z,36.71
2018-08-10T11:55:30.737Z,36.44
2018-08-10T11:58:00.740Z,35.44
2018-08-10T12:00:29.352Z,36.97
2018-08-10T12:02:57.909Z,37.05
2018-08-10T12:05:26.438Z,35.89
2018-08-10T12:07:55.207Z,33.37
2018-08-10T12:10:24.374Z,34.30
2018-08-10T12:12:52.931Z,33.73
2018-08-10T12:15:21.597Z,30.85
2018-08-10T12:17:51.087Z,30.19
2018-08-10T12:20:19.765Z,30.83
2018-08-10T12:22:48.219Z,29.27
2018-08-10T12:25:17.881Z,31.40
2018-08-10T12:27:46.351Z,31.59
2018-08-10T12:30:17.815Z,32.15
2018-08-10T12:32:46.551Z,34.02
2018-08-10T12:35:15.664Z,32.35
2018-08-10T12:37:44.886Z,34.12
2018-08-10T12:40:18.457Z,35.83
2018-08-10T12:42:47.532Z,35.43
2018-08-10T12:45:16.444Z,35.52
2018-08-10T12:47:45.163Z,32.96
2018-08-10T12:50:14.230Z,32.13
2018-08-10T12:52:43.194Z,35.53
2018-08-10T12:55:18.525Z,36.39
2018-08-10T12:57:47.067Z,37.15
2018-08-10T13:00:16.699Z,38.31
2018-08-10T13:02:46.575Z,39.14
2018-08-10T13:05:15.809Z,38.23
2018-08-10T13:07:44.553Z,38.86
2018-08-10T13:10:13.892Z,39.39
2018-08-10T13:12:42.393Z,38.94
2018-08-10T13:15:12.789Z,38.11
2018-08-10T13:17:42.070Z,36.55
2018-08-10T13:20:12.645Z,36.39
2018-08-10T13:22:42.372Z,34.48
2018-08-10T13:25:11.291Z,33.11
2018-08-10T13:27:40.779Z,33.51
2018-08-10T13:30:10.997Z,34.44
2018-08-10T13:32:40.523Z,36.07
2018-08-10T13:35:09.037Z,35.09
2018-08-10T13:37:37.597Z,32.50
2018-08-10T13:40:06.096Z,32.61
2018-08-10T13:42:34.691Z,32.61
2018-08-10T13:45:03.329Z,32.14
2018-08-10T13:47:31.800Z,34.87
2018-08-10T13:50:01.265Z,35.01
2018-08-10T13:52:29.776Z,36.41
2018-08-10T13:54:58.568Z,36.55
2018-08-10T13:57:27.727Z,36.97
2018-08-10T13:59:56.514Z,35.99
2018-08-10T14:02:25.059Z,33.91
2018-08-10T14:04:54.592Z,34.06
2018-08-10T14:07:23.204Z,34.92
2018-08-10T14:09:51.631Z,35.98
2018-08-10T14:12:20.151Z,35.64
2018-08-10T14:14:48.816Z,37.71
2018-08-10T14:17:17.321Z,38.34
2018-08-10T14:19:45.767Z,36.30
2018-08-10T14:22:14.996Z,37.77
2018-08-10T14:24:43.679Z,37.37
2018-08-10T14:27:12.771Z,37.16
2018-08-10T14:29:41.276Z,37.17
2018-08-10T14:32:10.219Z,36.98
2018-08-10T14:34:39.352Z,36.37
2018-08-10T14:37:07.972Z,36.27
2018-08-10T14:39:36.465Z,35.57
2018-08-10T14:42:04.995Z,34.91
2018-08-10T14:44:33.433Z,34.67
2018-08-10T14:47:02.066Z,34.04
2018-08-10T14:49:31.039Z,36.77
2018-08-10T14:52:00.193Z,35.52
2018-08-10T14:54:29.426Z,34.86
2018-08-10T14:56:57.899Z,35.04
2018-08-10T14:59:26.404Z,35.67
2018-08-10T15:01:55.059Z,35.62
2018-08-10T15:04:24.227Z,35.85
2018-08-10T15:06:52.768Z,35.61
2018-08-10T15:09:21.254Z,35.62
2018-08-10T15:11:49.747Z,36.11
2018-08-10T15:14:18.199Z,35.86
2018-08-10T15:16:46.700Z,34.83
2018-08-10T15:19:15.401Z,34.66
2018-08-10T15:21:43.846Z,34.49
2018-08-10T15:24:12.288Z,34.73
2018-08-10T15:26:41.390Z,34.74
2018-08-10T15:29:10.296Z,35.79
2018-08-10T15:31:38.938Z,36.44
2018-08-10T15:34:07.484Z,36.24
2018-08-10T15:36:36.502Z,37.02
2018-08-10T15:39:08.004Z,35.71
2018-08-10T15:41:36.502Z,34.78
2018-08-10T15:44:05.236Z,34.72
2018-08-10T15:46:33.681Z,34.35
2018-08-10T15:49:02.209Z,34.59
2018-08-10T15:51:30.780Z,35.11
2018-08-10T15:53:59.268Z,33.32
2018-08-10T15:56:27.723Z,35.36
2018-08-10T15:58:56.192Z,36.40
2018-08-10T16:01:24.769Z,35.72
2018-08-10T16:03:53.319Z,35.95
2018-08-10T16:06:21.792Z,35.82
2018-08-10T16:08:50.358Z,35.99
2018-08-10T16:11:19.011Z,36.04
2018-08-10T16:13:48.881Z,36.69
2018-08-10T16:16:17.438Z,36.49
2018-08-10T16:18:46.232Z,36.15
2018-08-10T16:21:14.884Z,36.76
2018-08-10T16:23:43.455Z,37.76
2018-08-10T16:26:12.748Z,36.81
2018-08-10T16:28:41.329Z,35.61
2018-08-10T16:31:09.781Z,35.46
2018-08-10T16:33:38.240Z,35.37
2018-08-10T16:36:06.702Z,34.71
2018-08-10T16:38:35.219Z,34.02
2018-08-10T16:41:03.816Z,33.33
2018-08-10T16:43:32.451Z,34.18
2018-08-10T16:46:00.919Z,34.81
2018-08-10T16:48:29.428Z,35.06
2018-08-10T16:50:58.155Z,35.99
2018-08-10T16:53:27.411Z,35.94
2018-08-10T16:55:56.483Z,36.95
2018-08-10T16:58:25.227Z,36.03
2018-08-10T17:00:54.515Z,36.32
2018-08-10T17:03:23.240Z,37.19
2018-08-10T17:05:52.513Z,37.05
2018-08-10T17:08:21.098Z,36.98
2018-08-10T17:10:49.959Z,37.40
2018-08-10T17:13:20.276Z,36.65
2018-08-10T17:15:49.900Z,37.71
2018-08-10T17:18:19.079Z,38.02
2018-08-10T17:20:47.528Z,39.14
2018-08-10T17:23:16.552Z,38.60
2018-08-10T17:25:45.021Z,38.76
2018-08-10T17:28:13.594Z,39.77
2018-08-10T17:30:42.337Z,39.58
2018-08-10T17:33:10.867Z,40.03
2018-08-10T17:35:39.285Z,39.60
2018-08-10T17:38:07.884Z,39.52
2018-08-10T17:40:36.480Z,39.89
2018-08-10T17:43:05.368Z,40.18
2018-08-10T17:45:33.923Z,40.25
2018-08-10T17:48:03.019Z,39.61
2018-08-10T17:50:31.715Z,41.07
2018-08-10T17:53:00.576Z,39.97
2018-08-10T17:55:30.861Z,40.70
2018-08-10T17:58:01.517Z,41.00
2018-08-10T18:00:30.028Z,41.63
2018-08-10T18:02:58.477Z,41.53
2018-08-10T18:05:26.984Z,41.36
2018-08-10T18:07:55.525Z,41.40
2018-08-10T18:10:24.124Z,42.15
2018-08-10T18:12:53.531Z,41.77
2018-08-10T18:15:23.126Z,42.04
2018-08-10T18:17:52.283Z,42.51
2018-08-10T18:20:23.014Z,43.34
2018-08-10T18:22:54.131Z,42.41
2018-08-10T18:25:23.357Z,42.80
2018-08-10T18:27:52.326Z,43.65
2018-08-10T18:30:23.147Z,43.63
2018-08-10T18:32:51.686Z,42.86
2018-08-10T18:35:20.172Z,43.52
2018-08-10T18:37:49.331Z,44.09
2018-08-10T18:40:18.854Z,44.42
2018-08-10T18:42:48.543Z,44.81
2018-08-10T18:45:19.789Z,45.32
2018-08-10T18:47:49.038Z,46.08
2018-08-10T18:50:18.669Z,45.80
2018-08-10T18:52:47.538Z,47.63
2018-08-10T18:55:21.343Z,47.46
2018-08-10T18:57:50.292Z,47.59
2018-08-10T19:00:22.342Z,48.70
2018-08-10T19:02:51.068Z,48.92
2018-08-10T19:05:20.236Z,49.33
2018-08-10T19:07:49.329Z,48.80
2018-08-10T19:10:21.396Z,50.51
2018-08-10T19:12:50.217Z,51.01
2018-08-10T19:15:20.522Z,50.81
2018-08-10T19:17:50.999Z,50.83
2018-08-10T19:20:20.779Z,55.41
2018-08-10T19:22:49.866Z,56.58
2018-08-10T19:25:18.940Z,55.42
2018-08-10T19:27:47.416Z,54.71
2018-08-10T19:30:24.358Z,54.21
2018-08-10T19:32:53.133Z,53.99
2018-08-10T19:35:22.118Z,54.97
2018-08-10T19:37:51.685Z,55.51
2018-08-10T19:40:21.249Z,55.96
2018-08-10T19:42:49.760Z,56.95
2018-08-10T19:45:18.599Z,58.47
2018-08-10T19:47:47.796Z,58.61
2018-08-10T19:50:17.563Z,59.07
2018-08-10T19:52:46.148Z,59.01
2018-08-10T19:55:15.633Z,58.92
2018-08-10T19:57:44.160Z,58.08
2018-08-10T20:00:15.340Z,58.91
2018-08-10T20:02:45.603Z,58.78
2018-08-10T20:05:14.011Z,58.18
2018-08-10T20:07:43.347Z,59.14
2018-08-10T20:10:13.131Z,59.19
2018-08-10T20:12:41.740Z,58.98
2018-08-10T20:15:13.901Z,59.12
2018-08-10T20:17:43.767Z,60.08
2018-08-10T20:20:15.902Z,59.91
2018-08-10T20:22:45.506Z,61.50
2018-08-10T20:25:14.740Z,60.79
2018-08-10T20:27:43.222Z,61.22
2018-08-10T20:30:14.261Z,62.00
2018-08-10T20:32:45.165Z,62.57
2018-08-10T20:35:15.316Z,62.14
2018-08-10T20:37:45.843Z,62.42
2018-08-10T20:40:18.243Z,63.17
2018-08-10T20:42:47.399Z,64.07
2018-08-10T20:45:17.103Z,64.78
2018-08-10T20:47:46.968Z,63.86
2018-08-10T20:50:20.183Z,63.54
2018-08-10T20:52:49.485Z,63.22
2018-08-10T20:55:18.776Z,63.77
2018-08-10T20:57:47.837Z,64.69
2018-08-10T21:00:17.473Z,64.74
2018-08-10T21:02:46.634Z,65.34
2018-08-10T21:05:17.202Z,66.13
2018-08-10T21:07:45.957Z,65.41
2018-08-10T21:10:17.412Z,65.70
2018-08-10T21:12:46.599Z,66.02
2018-08-10T21:15:16.190Z,66.54
2018-08-10T21:17:45.490Z,65.84
2018-08-10T21:20:15.956Z,66.47
2018-08-10T21:22:44.478Z,67.24
2018-08-10T21:25:14.371Z,67.47
2018-08-10T21:27:43.432Z,66.87
2018-08-10T21:30:18.360Z,68.14
2018-08-10T21:32:48.143Z,66.81
2018-08-10T21:35:17.839Z,66.44
2018-08-10T21:37:46.356Z,67.09
2018-08-10T21:40:15.900Z,66.79
2018-08-10T21:42:44.547Z,68.12
2018-08-10T21:45:13.701Z,68.98
2018-08-10T21:47:42.158Z,68.31
2018-08-10T21:50:14.480Z,68.28
2018-08-10T21:52:43.701Z,68.73
2018-08-10T21:55:13.168Z,68.42
2018-08-10T21:57:41.891Z,69.15
2018-08-10T22:00:41.395Z,69.35
2018-08-10T22:03:11.723Z,69.67
2018-08-10T22:05:40.773Z,70.02
2018-08-10T22:08:09.259Z,69.54
2018-08-10T22:10:37.758Z,70.20
2018-08-10T22:13:06.652Z,71.09
2018-08-10T22:15:40.911Z,70.92
2018-08-10T22:18:14.784Z,70.84
2018-08-10T22:20:43.277Z,69.87
2018-08-10T22:23:12.471Z,70.59
2018-08-10T22:25:40.982Z,70.57
2018-08-10T22:28:09.499Z,71.39
2018-08-10T22:30:38.055Z,71.45
2018-08-10T22:33:08.110Z,71.56
2018-08-10T22:35:36.537Z,71.25
2018-08-10T22:38:05.067Z,72.34
2018-08-10T22:40:35.440Z,72.06
2018-08-10T22:43:03.981Z,71.76
2018-08-10T22:45:32.767Z,72.58
2018-08-10T22:48:01.339Z,72.65
2018-08-10T22:50:30.587Z,72.83
2018-08-10T22:52:59.170Z,72.81
2018-08-10T22:55:27.706Z,72.64
2018-08-10T22:57:57.103Z,72.75
2018-08-10T23:00:26.691Z,73.22
2018-08-10T23:02:55.214Z,73.64
2018-08-10T23:05:24.496Z,73.99
2018-08-10T23:07:53.787Z,73.70
2018-08-10T23:10:22.797Z,74.08
2018-08-10T23:12:51.749Z,74.13
2018-08-10T23:15:20.536Z,75.01
2018-08-10T23:17:49.033Z,74.69
2018-08-10T23:20:17.596Z,74.46
2018-08-10T23:22:46.741Z,74.37
2018-08-10T23:25:15.361Z,74.19
2018-08-10T23:27:46.156Z,74.39
2018-08-10T23:30:17.046Z,74.50
2018-08-10T23:32:47.295Z,75.23
2018-08-10T23:35:15.786Z,75.44
2018-08-10T23:37:44.329Z,75.35
2018-08-10T23:40:15.542Z,74.94
2018-08-10T23:42:45.321Z,76.15
2018-08-10T23:45:15.074Z,76.03
2018-08-10T23:47:45.453Z,76.03
2018-08-10T23:50:15.649Z,76.03
2018-08-10T23:52:45.309Z,77.54
2018-08-10T23:55:15.894Z,76.62
2018-08-10T23:57:45.831Z,76.92
